Time;durP1;ratioP1;P1;durP2;ratioP2;P2;SDS_P1;SDS_P2;PMS_P1;PMS_P2;Temp;Humidity;BMP_temperature;BMP_pressure;BME280_temperature;BME280_humidity;BME280_pressure;Samples;Min_cycle;Max_cycle;Signal;HPM_P1;HPM_P2
2022/09/07 00:01:00;;;;;;;9.60;4.53;;;21.50;99.90;;;;;;4976210;28;20049;-75
2022/09/07 00:03:25;;;;;;;7.32;5.00;;;21.50;99.90;;;;;;4976351;28;20046;-75
2022/09/07 00:05:51;;;;;;;9.20;5.40;;;21.50;99.90;;;;;;4976171;28;20069;-75
2022/09/07 00:08:20;;;;;;;9.85;5.80;;;21.40;99.90;;;;;;4976061;28;20042;-75
2022/09/07 00:10:53;;;;;;;10.40;5.35;;;21.40;99.90;;;;;;4976144;28;20072;-75
2022/09/07 00:13:18;;;;;;;11.63;5.70;;;21.40;99.90;;;;;;4976170;28;20046;-75
2022/09/07 00:15:44;;;;;;;12.05;5.68;;;21.40;99.90;;;;;;4976334;28;20042;-75
2022/09/07 00:18:09;;;;;;;12.07;5.30;;;21.40;99.90;;;;;;4976351;28;20499;-75
2022/09/07 00:20:35;;;;;;;6.57;5.00;;;21.30;99.90;;;;;;4976101;28;20503;-75
2022/09/07 00:23:00;;;;;;;9.07;5.07;;;21.30;99.90;;;;;;4976038;28;20038;-75
2022/09/07 00:25:26;;;;;;;9.60;5.38;;;21.30;99.90;;;;;;4976032;28;20042;-75
2022/09/07 00:27:51;;;;;;;13.32;5.70;;;21.30;99.90;;;;;;4975933;28;20042;-75
2022/09/07 00:30:17;;;;;;;12.48;5.03;;;21.20;99.90;;;;;;4976062;28;20038;-75
2022/09/07 00:32:43;;;;;;;9.15;5.22;;;21.20;99.90;;;;;;4975952;28;20092;-75
2022/09/07 00:35:08;;;;;;;9.60;5.43;;;21.20;99.90;;;;;;4960185;28;20101;-75
2022/09/07 00:37:34;;;;;;;10.15;5.65;;;21.10;99.90;;;;;;4975820;28;20521;-75
2022/09/07 00:40:00;;;;;;;9.00;4.93;;;21.10;99.90;;;;;;4975865;28;20125;-75
2022/09/07 00:42:25;;;;;;;8.45;5.45;;;21.10;99.90;;;;;;4975842;28;20080;-75
2022/09/07 00:44:57;;;;;;;6.90;6.00;;;21.00;99.90;;;;;;4959782;28;20034;-75
2022/09/07 00:47:33;;;;;;;10.32;5.78;;;21.00;99.90;;;;;;4975916;28;20038;-75
2022/09/07 00:50:04;;;;;;;13.60;6.15;;;20.90;99.90;;;;;;4959779;28;20128;-75
2022/09/07 00:52:31;;;;;;;8.20;5.80;;;20.90;99.90;;;;;;4975751;28;20042;-75
2022/09/07 00:55:05;;;;;;;8.73;6.30;;;20.80;99.90;;;;;;4975754;28;20049;-75
2022/09/07 00:57:31;;;;;;;12.65;6.40;;;20.80;99.90;;;;;;4975669;28;20438;-75
2022/09/07 00:59:58;;;;;;;14.68;7.35;;;20.50;99.90;;;;;;4959612;28;20050;-75
2022/09/07 01:02:25;;;;;;;10.57;7.50;;;20.40;99.90;;;;;;4975873;28;20104;-75
2022/09/07 01:04:57;;;;;;;16.33;7.32;;;20.20;99.90;;;;;;4963069;28;20046;-75
2022/09/07 01:07:23;;;;;;;12.82;7.25;;;20.10;99.90;;;;;;4979206;28;20065;-75
2022/09/07 01:09:49;;;;;;;11.88;8.65;;;20.00;99.90;;;;;;4979059;28;20491;-75
2022/09/07 01:12:15;;;;;;;14.30;9.07;;;20.00;99.90;;;;;;4978958;28;20046;-75
2022/09/07 01:14:47;;;;;;;16.05;9.60;;;20.00;99.90;;;;;;4962847;28;20041;-75
2022/09/07 01:17:26;;;;;;;11.05;8.60;;;20.00;99.90;;;;;;4963014;28;20070;-75
2022/09/07 01:20:25;;;;;;;11.73;9.35;;;19.80;99.90;;;;;;4963064;28;20134;-75
2022/09/07 01:22:56;;;;;;;14.07;9.27;;;19.90;99.90;;;;;;4979141;28;20069;-75
2022/09/07 01:25:48;;;;;;;12.00;9.43;;;19.80;99.90;;;;;;4978786;28;20510;-76
2022/09/07 01:28:24;;;;;;;12.82;9.77;;;19.90;99.90;;;;;;4962753;28;20090;-76
2022/09/07 01:42:07;;;;;;;11.13;8.90;;;19.90;99.90;;;;;;4996013;28;20037;-75
2022/09/07 01:44:58;;;;;;;14.38;10.00;;;19.90;99.90;;;;;;4978837;28;20035;-75
2022/09/07 01:47:46;;;;;;;16.48;10.90;;;19.90;99.90;;;;;;4978219;28;20526;-75
2022/09/07 01:50:17;;;;;;;15.02;11.50;;;19.90;99.90;;;;;;4962428;28;20129;-75
2022/09/07 01:52:47;;;;;;;16.65;11.50;;;19.80;99.90;;;;;;4978286;28;20050;-76
2022/09/07 01:55:27;;;;;;;11.98;10.32;;;19.80;99.90;;;;;;4978289;28;20030;-76
2022/09/07 01:58:08;;;;;;;13.90;10.15;;;19.80;99.90;;;;;;4978692;28;20038;-76
2022/09/07 02:00:37;;;;;;;10.82;9.50;;;19.80;99.90;;;;;;4978465;28;20513;-76
2022/09/07 02:03:20;;;;;;;10.25;8.77;;;19.80;99.90;;;;;;4978112;28;20065;-75
2022/09/07 02:05:57;;;;;;;11.25;7.55;;;19.80;99.90;;;;;;4978279;28;20061;-76
2022/09/07 02:08:55;;;;;;;7.78;7.07;;;19.80;99.90;;;;;;4961913;28;20061;-76
2022/09/07 02:11:27;;;;;;;10.15;7.38;;;19.70;99.90;;;;;;4963062;28;20129;-75
2022/09/07 02:14:13;;;;;;;11.98;7.40;;;19.60;99.90;;;;;;4977548;28;20035;-76
2022/09/07 02:16:51;;;;;;;8.20;7.30;;;19.60;99.90;;;;;;4977725;28;20387;-76
2022/09/07 02:19:19;;;;;;;9.45;8.20;;;19.60;99.90;;;;;;4977858;28;20047;-76
2022/09/07 02:21:52;;;;;;;10.93;8.05;;;19.50;99.90;;;;;;4977714;28;20042;-76
2022/09/07 02:24:23;;;;;;;8.75;7.35;;;19.50;99.90;;;;;;4977711;28;20122;-76
2022/09/07 02:26:52;;;;;;;8.80;7.68;;;19.50;99.90;;;;;;4961802;28;20046;-77
2022/09/07 02:29:18;;;;;;;9.55;7.32;;;19.50;99.90;;;;;;4977510;28;20518;-77
2022/09/07 02:31:43;;;;;;;7.80;7.00;;;19.40;99.90;;;;;;4977626;28;20038;-77
2022/09/07 02:34:09;;;;;;;8.85;6.75;;;19.40;99.90;;;;;;4977499;28;20034;-77
2022/09/07 02:36:42;;;;;;;8.77;6.15;;;19.40;99.90;;;;;;4977325;28;20134;-76
2022/09/07 02:39:08;;;;;;;7.65;6.32;;;19.40;99.90;;;;;;4961511;28;20053;-77
2022/09/07 02:41:36;;;;;;;9.40;6.20;;;19.40;99.90;;;;;;4977428;28;20043;-77
2022/09/07 02:44:12;;;;;;;10.75;5.70;;;19.40;99.90;;;;;;4977562;28;20491;-77
2022/09/07 02:47:04;;;;;;;7.68;5.57;;;19.40;99.90;;;;;;4977566;28;20415;-77
2022/09/07 02:50:07;;;;;;;9.77;5.57;;;19.40;99.90;;;;;;4964831;28;20205;-77
2022/09/07 02:52:43;;;;;;;6.05;4.95;;;19.40;99.90;;;;;;4977136;28;20046;-77
2022/09/07 02:55:14;;;;;;;7.43;4.60;;;19.30;99.90;;;;;;4977189;28;20049;-77
2022/09/07 02:57:54;;;;;;;6.27;4.60;;;19.30;99.90;;;;;;4961168;28;20181;-77
2022/09/07 03:00:24;;;;;;;6.82;4.50;;;19.20;99.90;;;;;;4977040;28;20125;-77
2022/09/07 03:03:13;;;;;;;7.53;4.38;;;19.20;99.90;;;;;;4977080;28;20499;-77
2022/09/07 03:05:46;;;;;;;4.85;4.32;;;19.20;99.90;;;;;;4977212;28;20038;-77
2022/09/07 03:08:19;;;;;;;7.07;4.18;;;19.10;99.90;;;;;;4976848;28;20043;-76
2022/09/07 03:10:45;;;;;;;4.90;4.25;;;19.10;99.90;;;;;;4960792;28;20042;-77
2022/09/07 03:13:26;;;;;;;6.28;5.10;;;19.10;99.90;;;;;;4960818;28;20081;-77
2022/09/07 03:15:52;;;;;;;5.43;4.55;;;19.10;99.90;;;;;;4976688;28;20447;-76
2022/09/07 03:18:18;;;;;;;6.30;4.55;;;19.00;99.90;;;;;;4976793;28;20129;-76
2022/09/07 03:20:44;;;;;;;5.07;4.30;;;19.00;99.90;;;;;;4960625;28;20077;-77
2022/09/07 03:23:10;;;;;;;6.38;4.63;;;19.00;99.90;;;;;;4976670;28;20046;-77
2022/09/07 03:25:36;;;;;;;8.10;5.15;;;19.00;99.90;;;;;;4975977;28;20038;-77
2022/09/07 03:28:02;;;;;;;5.88;4.68;;;19.00;99.90;;;;;;4976574;28;20100;-77
2022/09/07 03:30:27;;;;;;;6.55;4.97;;;19.00;99.90;;;;;;4976523;28;20035;-77
2022/09/07 03:32:53;;;;;;;6.50;5.05;;;18.90;99.90;;;;;;4976549;28;20031;-77
2022/09/07 03:35:19;;;;;;;7.85;5.20;;;18.90;99.90;;;;;;4976779;28;20145;-76
2022/09/07 03:37:44;;;;;;;7.22;5.00;;;18.90;99.90;;;;;;4976784;28;20100;-76
2022/09/07 03:40:12;;;;;;;5.63;5.00;;;18.90;99.90;;;;;;4976714;28;20050;-76
2022/09/07 03:42:38;;;;;;;5.53;4.90;;;18.90;99.90;;;;;;4976432;28;20062;-76
2022/09/07 03:45:05;;;;;;;5.90;4.97;;;18.90;99.90;;;;;;4976401;28;20039;-76
2022/09/07 03:47:33;;;;;;;6.55;5.95;;;18.90;99.90;;;;;;4976246;28;20507;-76
2022/09/07 03:49:58;;;;;;;6.05;5.45;;;18.90;99.90;;;;;;4960534;28;20121;-76
2022/09/07 03:52:24;;;;;;;6.95;5.72;;;18.90;99.90;;;;;;4960303;28;20268;-77
2022/09/07 03:54:50;;;;;;;7.05;5.35;;;18.90;99.90;;;;;;4976557;28;20038;-77
2022/09/07 03:57:15;;;;;;;6.55;5.95;;;18.90;99.90;;;;;;4976472;28;20403;-77
2022/09/07 03:59:41;;;;;;;7.93;5.93;;;18.90;99.90;;;;;;4976201;28;20104;-77
2022/09/07 04:02:06;;;;;;;7.13;6.20;;;18.90;99.90;;;;;;4976269;28;20038;-77
2022/09/07 04:04:32;;;;;;;7.60;6.80;;;18.80;99.90;;;;;;4976203;28;20093;-77
2022/09/07 04:06:58;;;;;;;7.68;6.53;;;18.80;99.90;;;;;;4976099;28;20046;-77
2022/09/07 04:09:23;;;;;;;8.55;6.53;;;18.80;99.90;;;;;;4976099;28;20133;-77
2022/09/07 04:11:49;;;;;;;8.30;6.25;;;18.80;99.90;;;;;;4976136;28;20034;-77
2022/09/07 04:14:15;;;;;;;6.60;5.88;;;18.80;99.90;;;;;;4960081;28;20046;-77
2022/09/07 04:16:40;;;;;;;6.93;6.22;;;18.80;99.90;;;;;;4976063;28;20046;-77
2022/09/07 04:19:06;;;;;;;7.93;6.40;;;18.80;99.90;;;;;;4976149;28;20034;-77
2022/09/07 04:21:32;;;;;;;9.15;6.47;;;18.80;99.90;;;;;;4976092;28;20050;-77
2022/09/07 04:23:58;;;;;;;8.00;7.20;;;18.70;99.90;;;;;;4960189;28;20077;-77
2022/09/07 04:26:29;;;;;;;7.20;6.47;;;18.80;99.90;;;;;;4975922;28;20049;-77
2022/09/07 04:28:55;;;;;;;7.65;6.90;;;18.80;99.90;;;;;;4976009;28;20046;-77
2022/09/07 04:31:22;;;;;;;7.40;6.72;;;18.70;99.90;;;;;;4975921;28;20134;-76
2022/09/07 04:33:49;;;;;;;7.90;7.10;;;18.70;99.90;;;;;;4976183;28;20042;-77
2022/09/07 04:36:16;;;;;;;7.93;7.13;;;18.70;99.90;;;;;;4976021;28;20042;-77
2022/09/07 04:38:42;;;;;;;9.63;7.18;;;18.70;99.90;;;;;;4979654;28;20050;-77
2022/09/07 04:41:16;;;;;;;7.97;7.05;;;18.70;99.90;;;;;;4979821;28;20034;-77
2022/09/07 04:43:43;;;;;;;7.75;6.90;;;18.70;99.90;;;;;;4979543;28;20092;-77
2022/09/07 04:46:21;;;;;;;8.63;7.05;;;18.70;99.90;;;;;;4979732;28;20038;-77
2022/09/07 04:48:51;;;;;;;10.63;7.65;;;18.70;99.90;;;;;;4979452;28;20057;-77
2022/09/07 04:51:18;;;;;;;10.23;8.18;;;18.70;99.90;;;;;;4963432;28;20565;-77
2022/09/07 04:53:47;;;;;;;10.18;9.02;;;18.70;99.90;;;;;;4979623;28;20042;-77
2022/09/07 04:56:13;;;;;;;10.77;9.57;;;18.70;99.90;;;;;;4979501;28;20101;-77
2022/09/07 04:58:38;;;;;;;10.38;9.27;;;18.70;99.90;;;;;;4979314;28;20550;-77
2022/09/07 05:01:05;;;;;;;10.43;9.43;;;18.70;99.90;;;;;;4979248;28;20046;-78
2022/09/07 05:03:33;;;;;;;12.65;11.35;;;18.80;99.90;;;;;;4963090;28;20133;-77
2022/09/07 05:06:06;;;;;;;12.10;10.45;;;18.70;99.90;;;;;;4979337;28;20046;-76
2022/09/07 05:08:40;;;;;;;14.65;11.23;;;18.70;99.90;;;;;;4962965;28;20041;-76
2022/09/07 05:11:06;;;;;;;13.00;11.70;;;18.70;99.90;;;;;;4979093;28;20129;-77
2022/09/07 05:13:32;;;;;;;13.45;12.05;;;18.70;99.90;;;;;;4962903;28;20070;-77
2022/09/07 05:16:00;;;;;;;13.13;11.93;;;18.70;99.90;;;;;;4979188;28;20070;-77
2022/09/07 05:18:26;;;;;;;14.13;12.68;;;18.60;99.90;;;;;;4978940;28;20053;-77
2022/09/07 05:20:52;;;;;;;12.30;11.20;;;18.70;99.90;;;;;;4979146;28;20050;-76
2022/09/07 05:23:17;;;;;;;14.23;11.52;;;18.60;99.90;;;;;;4963022;28;20495;-76
2022/09/07 05:25:45;;;;;;;12.60;11.32;;;18.60;99.90;;;;;;4978837;28;20498;-77
2022/09/07 05:28:11;;;;;;;13.32;11.43;;;18.60;99.90;;;;;;4978674;28;20043;-77
2022/09/07 05:30:37;;;;;;;12.90;11.52;;;18.60;99.90;;;;;;4979011;28;20042;-77
2022/09/07 05:33:04;;;;;;;13.32;12.00;;;18.60;99.90;;;;;;4978921;28;20038;-77
2022/09/07 05:35:30;;;;;;;13.38;12.07;;;18.60;99.90;;;;;;4978578;28;20409;-77
2022/09/07 05:37:55;;;;;;;12.80;11.50;;;18.60;99.90;;;;;;4978715;28;20103;-77
2022/09/07 05:40:21;;;;;;;14.90;12.40;;;18.60;99.90;;;;;;4978557;28;20136;-77
2022/09/07 05:42:47;;;;;;;14.45;12.95;;;18.60;99.90;;;;;;4978802;28;20065;-76
2022/09/07 05:45:13;;;;;;;14.25;12.75;;;18.60;99.90;;;;;;4978446;28;20498;-76
2022/09/07 05:47:38;;;;;;;15.10;13.45;;;18.60;99.90;;;;;;4978428;28;20045;-77
2022/09/07 05:50:05;;;;;;;16.52;14.38;;;18.60;99.90;;;;;;4977515;28;20043;-77
2022/09/07 05:52:31;;;;;;;15.60;14.13;;;18.60;99.90;;;;;;4978526;28;20085;-77
2022/09/07 05:54:57;;;;;;;15.32;13.80;;;18.70;99.90;;;;;;4978223;28;20039;-77
2022/09/07 05:57:22;;;;;;;14.90;13.48;;;18.70;99.90;;;;;;4978171;28;20038;-76
2022/09/07 05:59:48;;;;;;;15.57;13.98;;;18.70;99.90;;;;;;4962348;28;20035;-77
2022/09/07 06:02:14;;;;;;;15.60;14.18;;;18.70;99.90;;;;;;4978235;28;20092;-77
2022/09/07 06:04:40;;;;;;;15.80;14.20;;;18.70;99.90;;;;;;4978104;28;20042;-77
2022/09/07 06:07:07;;;;;;;16.25;14.63;;;18.70;99.90;;;;;;4961858;28;20525;-77
2022/09/07 06:09:32;;;;;;;17.05;15.38;;;18.70;99.90;;;;;;4978010;28;20058;-76
2022/09/07 06:11:58;;;;;;;15.80;14.27;;;18.70;99.90;;;;;;4978063;28;20038;-76
2022/09/07 06:14:23;;;;;;;17.58;15.88;;;18.70;99.90;;;;;;4961795;28;20042;-76
2022/09/07 06:16:49;;;;;;;16.88;15.25;;;18.60;99.90;;;;;;4978150;28;20038;-76
2022/09/07 06:19:15;;;;;;;17.13;15.63;;;18.70;99.90;;;;;;4977836;28;20038;-76
2022/09/07 06:21:40;;;;;;;18.17;15.70;;;18.70;99.90;;;;;;4977812;28;20046;-76
2022/09/07 06:24:18;;;;;;;17.05;15.43;;;18.70;99.90;;;;;;4977791;28;20041;-76
2022/09/07 06:26:44;;;;;;;17.10;15.60;;;18.80;99.90;;;;;;4977071;28;20056;-76
2022/09/07 06:29:10;;;;;;;19.27;17.38;;;18.80;99.90;;;;;;4977605;28;20042;-77
2022/09/07 06:31:35;;;;;;;17.30;15.70;;;18.80;99.90;;;;;;4977620;28;20038;-77
2022/09/07 06:34:01;;;;;;;18.17;16.33;;;18.70;99.90;;;;;;4977733;28;20041;-77
2022/09/07 06:36:27;;;;;;;18.65;16.83;;;18.70;99.90;;;;;;4977580;28;20391;-77
2022/09/07 06:38:54;;;;;;;21.30;17.88;;;18.80;99.90;;;;;;4977538;28;20408;-76
2022/09/07 06:41:22;;;;;;;19.15;17.45;;;18.80;99.90;;;;;;4977385;28;20047;-76
2022/09/07 06:43:48;;;;;;;21.05;19.08;;;18.80;99.90;;;;;;4977407;28;20503;-76
2022/09/07 06:46:15;;;;;;;21.70;19.60;;;18.80;99.90;;;;;;4961158;28;20129;-76
2022/09/07 06:48:40;;;;;;;19.45;17.50;;;18.80;99.90;;;;;;4977291;28;20038;-76
2022/09/07 06:51:12;;;;;;;20.15;18.15;;;18.80;99.90;;;;;;4977221;28;20554;-76
2022/09/07 06:53:37;;;;;;;22.02;19.75;;;18.80;99.90;;;;;;4977219;28;20034;-76
2022/09/07 06:56:09;;;;;;;20.98;18.70;;;18.80;99.90;;;;;;4977263;28;20061;-76
2022/09/07 06:58:35;;;;;;;20.77;18.63;;;18.90;99.90;;;;;;4977154;28;20545;-77
2022/09/07 07:01:16;;;;;;;21.58;19.58;;;18.90;99.90;;;;;;4961246;28;20042;-77
2022/09/07 07:03:42;;;;;;;21.75;19.55;;;18.90;99.90;;;;;;4977076;28;20079;-77
2022/09/07 07:06:08;;;;;;;24.33;19.73;;;18.90;99.90;;;;;;4976925;28;20080;-77
2022/09/07 07:08:35;;;;;;;22.23;19.95;;;18.80;99.90;;;;;;4976781;28;20043;-77
2022/09/07 07:11:06;;;;;;;22.88;20.08;;;18.90;99.90;;;;;;4976830;28;20045;-77
2022/09/07 07:13:33;;;;;;;21.70;19.70;;;18.90;99.90;;;;;;4977049;28;20077;-77
2022/09/07 07:16:10;;;;;;;23.35;21.15;;;18.90;99.90;;;;;;4977001;28;20084;-77
2022/09/07 07:18:35;;;;;;;22.85;20.17;;;19.00;99.90;;;;;;4976831;28;20465;-77
2022/09/07 07:21:03;;;;;;;21.98;19.90;;;19.00;99.90;;;;;;4976746;28;20541;-77
2022/09/07 07:23:29;;;;;;;22.73;20.33;;;19.00;99.90;;;;;;4976739;28;20419;-77
2022/09/07 07:25:54;;;;;;;23.10;20.63;;;19.00;99.90;;;;;;4976682;28;20496;-77
2022/09/07 07:28:22;;;;;;;24.38;22.02;;;19.00;99.90;;;;;;4960557;28;20038;-77
2022/09/07 07:30:57;;;;;;;26.58;22.15;;;19.00;99.90;;;;;;4976600;28;20070;-77
2022/09/07 07:33:23;;;;;;;24.75;22.17;;;19.10;99.90;;;;;;4977069;28;20047;-77
2022/09/07 07:35:49;;;;;;;23.30;21.00;;;19.10;99.90;;;;;;4976474;28;20042;-77
2022/09/07 07:38:15;;;;;;;24.70;22.25;;;19.20;99.90;;;;;;4976708;28;20042;-77
2022/09/07 07:40:40;;;;;;;24.58;22.17;;;19.30;99.90;;;;;;4976822;28;20411;-77
2022/09/07 07:43:06;;;;;;;23.75;21.33;;;19.30;99.90;;;;;;4976451;28;20045;-77
2022/09/07 07:45:31;;;;;;;25.17;22.80;;;19.40;99.90;;;;;;4976411;28;20097;-77
2022/09/07 07:47:57;;;;;;;23.70;21.15;;;19.50;99.90;;;;;;4976442;28;20092;-77
2022/09/07 07:50:22;;;;;;;22.92;20.50;;;19.50;99.90;;;;;;4976630;28;20042;-77
2022/09/07 07:52:48;;;;;;;27.13;24.35;;;19.60;99.90;;;;;;4976540;28;20125;-77
2022/09/07 07:55:14;;;;;;;22.85;20.55;;;19.70;99.90;;;;;;4976295;28;20038;-77
2022/09/07 07:57:39;;;;;;;22.63;20.33;;;19.70;99.90;;;;;;4976438;28;20038;-76
2022/09/07 08:00:06;;;;;;;23.35;20.88;;;19.70;99.90;;;;;;4976546;28;20511;-77
2022/09/07 08:02:31;;;;;;;22.85;20.50;;;19.80;99.90;;;;;;4976366;28;20050;-77
2022/09/07 08:04:57;;;;;;;22.73;20.35;;;19.80;99.90;;;;;;4976228;28;20142;-77
2022/09/07 08:07:23;;;;;;;22.65;20.33;;;19.90;99.90;;;;;;4960242;28;20388;-77
2022/09/07 08:09:48;;;;;;;21.33;19.13;;;19.90;99.90;;;;;;4976229;28;20443;-77
2022/09/07 08:12:18;;;;;;;20.33;18.33;;;19.90;99.90;;;;;;4993927;28;20442;-77
2022/09/07 08:14:47;;;;;;;18.90;17.02;;;20.00;99.90;;;;;;4980098;28;20034;-77
2022/09/07 08:17:15;;;;;;;17.60;15.95;;;20.00;99.90;;;;;;4979975;28;20030;-77
2022/09/07 08:19:41;;;;;;;17.33;15.60;;;20.10;99.90;;;;;;4980256;28;20037;-77
2022/09/07 08:22:08;;;;;;;17.75;15.85;;;20.20;99.90;;;;;;4979984;28;20447;-77
2022/09/07 08:24:33;;;;;;;19.25;17.20;;;20.40;99.90;;;;;;4979957;28;20077;-77
2022/09/07 08:26:59;;;;;;;17.38;15.57;;;20.50;99.90;;;;;;4980094;28;20042;-77
2022/09/07 08:29:25;;;;;;;17.08;15.40;;;20.50;99.90;;;;;;4979781;28;20133;-77
2022/09/07 08:31:51;;;;;;;16.67;14.57;;;20.40;99.90;;;;;;4979751;28;20129;-77
2022/09/07 08:34:17;;;;;;;15.35;13.85;;;20.50;99.90;;;;;;4980050;28;20134;-76
2022/09/07 08:36:43;;;;;;;16.67;15.05;;;20.50;99.90;;;;;;4963564;28;20388;-77
2022/09/07 08:39:08;;;;;;;15.25;13.77;;;20.50;99.90;;;;;;4979573;28;20097;-77
2022/09/07 08:41:45;;;;;;;16.08;13.30;;;20.50;99.90;;;;;;4979584;28;20089;-77
2022/09/07 08:44:26;;;;;;;14.70;13.30;;;20.50;99.90;;;;;;4979630;28;20046;-77
2022/09/07 08:47:00;;;;;;;16.13;13.10;;;20.60;99.90;;;;;;4963397;28;20047;-77
2022/09/07 08:49:43;;;;;;;13.32;12.02;;;20.60;99.90;;;;;;4980302;28;20195;-76
2022/09/07 08:52:26;;;;;;;13.85;12.55;;;20.50;99.90;;;;;;4979699;28;20056;-77
2022/09/07 08:55:02;;;;;;;13.88;11.18;;;20.60;99.90;;;;;;4963349;28;20065;-77
2022/09/07 08:57:33;;;;;;;12.40;11.10;;;20.70;99.90;;;;;;4979203;28;20517;-77
2022/09/07 09:00:11;;;;;;;12.57;11.38;;;20.90;99.90;;;;;;4979224;28;20507;-77
2022/09/07 09:02:37;;;;;;;12.10;10.90;;;21.10;99.90;;;;;;4963151;28;20129;-77
2022/09/07 09:05:30;;;;;;;12.80;10.27;;;21.30;99.90;;;;;;4979468;28;20482;-77
2022/09/07 09:08:22;;;;;;;11.10;9.93;;;21.40;99.90;;;;;;4954009;28;20058;-77
2022/09/07 09:11:02;;;;;;;10.50;9.50;;;21.40;99.90;;;;;;4979359;28;20042;-77
2022/09/07 09:13:38;;;;;;;11.90;10.63;;;21.40;99.90;;;;;;4979317;28;20038;-77
2022/09/07 09:16:22;;;;;;;10.80;9.68;;;21.30;99.90;;;;;;4963185;28;20507;-77
2022/09/07 09:19:18;;;;;;;10.73;9.55;;;21.30;99.90;;;;;;4979254;28;20038;-77
2022/09/07 09:21:45;;;;;;;10.45;9.38;;;21.30;99.90;;;;;;4979261;28;20109;-77
2022/09/07 09:24:22;;;;;;;9.73;8.73;;;21.30;99.90;;;;;;4977996;28;20113;-77
2022/09/07 09:26:53;;;;;;;8.73;7.82;;;21.40;99.90;;;;;;4962596;28;20133;-77
2022/09/07 09:29:20;;;;;;;8.77;7.95;;;21.70;99.90;;;;;;4978689;28;20081;-77
2022/09/07 09:31:46;;;;;;;9.68;8.68;;;21.80;99.90;;;;;;4978668;28;20046;-77
2022/09/07 09:34:16;;;;;;;9.77;8.10;;;21.90;99.90;;;;;;4978690;28;20034;-77
2022/09/07 09:36:43;;;;;;;9.18;7.88;;;22.00;99.90;;;;;;4978418;28;20054;-77
2022/09/07 09:39:36;;;;;;;7.82;6.32;;;22.10;99.90;;;;;;4978581;28;20042;-77
2022/09/07 09:42:10;;;;;;;8.88;7.25;;;22.20;99.90;;;;;;4975006;28;20049;-77
2022/09/07 09:44:37;;;;;;;9.63;6.82;;;22.30;99.90;;;;;;4962457;28;20047;-77
2022/09/07 09:47:04;;;;;;;8.38;7.18;;;22.30;99.90;;;;;;4962209;28;20046;-77
2022/09/07 09:49:36;;;;;;;8.00;7.07;;;22.40;99.90;;;;;;4978664;28;20082;-77
2022/09/07 09:52:11;;;;;;;8.52;6.72;;;22.60;99.90;;;;;;4978406;28;20106;-77
2022/09/07 09:54:40;;;;;;;9.93;7.03;;;22.60;99.90;;;;;;4962532;28;20042;-77
2022/09/07 09:57:14;;;;;;;8.90;6.38;;;22.60;99.90;;;;;;4962117;28;20499;-77
2022/09/07 09:59:39;;;;;;;8.25;6.20;;;22.50;99.90;;;;;;4962382;28;20069;-77
2022/09/07 10:02:27;;;;;;;8.93;5.57;;;22.40;99.90;;;;;;4978121;28;20411;-77
2022/09/07 10:04:52;;;;;;;8.07;5.35;;;22.30;99.90;;;;;;4962007;28;20514;-77
2022/09/07 10:07:20;;;;;;;9.98;5.78;;;22.40;99.90;;;;;;4978156;28;20046;-77
2022/09/07 10:09:51;;;;;;;5.57;4.90;;;22.70;99.90;;;;;;4978321;28;20446;-77
2022/09/07 10:12:36;;;;;;;8.43;4.95;;;23.10;99.90;;;;;;4977963;28;20045;-77
2022/09/07 10:15:05;;;;;;;7.15;4.70;;;23.40;99.90;;;;;;4961938;28;20038;-77
2022/09/07 10:17:34;;;;;;;8.25;5.13;;;23.50;99.90;;;;;;4978244;28;20042;-77
2022/09/07 10:20:00;;;;;;;6.68;4.90;;;23.60;99.90;;;;;;4977814;28;20038;-77
2022/09/07 10:22:35;;;;;;;7.57;5.13;;;23.90;99.90;;;;;;4977702;28;20047;-77
2022/09/07 10:25:21;;;;;;;5.82;4.47;;;24.20;99.90;;;;;;4977835;28;20038;-76
2022/09/07 10:28:01;;;;;;;6.97;4.82;;;24.50;99.90;;;;;;4976973;28;20057;-76
2022/09/07 10:30:28;;;;;;;7.28;5.13;;;24.90;99.90;;;;;;4977555;28;20499;-76
2022/09/07 10:33:03;;;;;;;6.28;4.57;;;24.80;99.90;;;;;;4977567;28;20117;-77
2022/09/07 10:35:59;;;;;;;5.95;4.88;;;24.90;99.90;;;;;;4977543;28;20044;-77
2022/09/07 10:38:29;;;;;;;6.90;4.70;;;24.90;99.90;;;;;;4977405;28;20069;-77
2022/09/07 10:41:08;;;;;;;5.35;3.95;;;25.20;99.90;;;;;;4977385;28;20046;-77
2022/09/07 10:43:49;;;;;;;5.38;4.40;;;25.60;99.90;;;;;;4977634;28;20108;-77
2022/09/07 10:46:14;;;;;;;6.60;4.18;;;25.70;99.90;;;;;;4977241;28;20042;-77
2022/09/07 10:49:09;;;;;;;4.97;4.30;;;25.80;99.90;;;;;;4977315;28;20042;-77
2022/09/07 10:51:51;;;;;;;5.90;4.05;;;26.10;99.90;;;;;;4961200;28;20034;-77
2022/09/07 10:54:31;;;;;;;5.38;4.18;;;26.20;99.90;;;;;;4961440;28;20121;-77
2022/09/07 10:57:16;;;;;;;7.25;4.60;;;26.10;99.90;;;;;;4977351;28;20049;-77
2022/09/07 10:59:50;;;;;;;7.57;4.10;;;25.90;99.90;;;;;;4977061;28;20417;-77
2022/09/07 11:02:27;;;;;;;4.43;3.58;;;26.10;99.90;;;;;;4977002;28;20050;-77
2022/09/07 11:05:13;;;;;;;4.25;3.03;;;26.00;99.90;;;;;;4977311;28;20088;-77
2022/09/07 11:07:54;;;;;;;6.07;3.95;;;26.20;99.90;;;;;;4960723;28;20049;-77
2022/09/07 11:10:38;;;;;;;5.63;3.75;;;26.30;99.90;;;;;;4976947;28;20090;-77
2022/09/07 11:13:08;;;;;;;6.22;4.38;;;26.30;99.90;;;;;;4976883;28;20453;-77
2022/09/07 11:15:49;;;;;;;5.72;4.13;;;26.30;99.90;;;;;;4976834;28;20049;-77
2022/09/07 11:18:38;;;;;;;6.07;3.97;;;26.60;99.90;;;;;;4960775;28;20111;-77
2022/09/07 11:21:13;;;;;;;6.53;3.75;;;26.70;99.90;;;;;;4976833;28;20110;-77
2022/09/07 11:23:50;;;;;;;5.07;3.53;;;26.70;97.90;;;;;;4976756;28;20045;-77
2022/09/07 11:26:21;;;;;;;6.45;4.40;;;26.60;97.30;;;;;;4976580;28;20046;-77
2022/09/07 11:28:54;;;;;;;8.40;4.80;;;26.40;98.30;;;;;;4960616;28;20050;-77
2022/09/07 11:31:37;;;;;;;8.45;5.07;;;26.50;98.30;;;;;;4976566;28;20041;-77
2022/09/07 11:34:32;;;;;;;10.63;4.97;;;26.60;97.00;;;;;;4976629;28;20043;-77
2022/09/07 11:37:05;;;;;;;5.03;3.88;;;26.80;98.60;;;;;;4976682;28;20049;-76
2022/09/07 11:39:39;;;;;;;7.05;4.38;;;26.60;96.60;;;;;;4976754;28;20517;-76
2022/09/07 11:42:09;;;;;;;6.25;4.05;;;26.50;96.60;;;;;;4976540;28;20088;-76
2022/09/07 11:44:53;;;;;;;6.07;3.80;;;26.50;96.10;;;;;;4976455;28;20053;-76
2022/09/07 11:48:03;;;;;;;9.43;4.53;;;26.60;95.10;;;;;;4975947;28;20044;-76
2022/09/07 11:50:34;;;;;;;7.40;4.47;;;26.60;94.50;;;;;;4955989;28;20057;-76
2022/09/07 11:53:24;;;;;;;7.72;3.80;;;27.00;94.30;;;;;;4976612;28;20490;-76
2022/09/07 11:56:12;;;;;;;5.72;3.47;;;27.40;92.90;;;;;;4976503;28;20173;-77
2022/09/07 11:58:53;;;;;;;5.20;3.10;;;27.90;93.20;;;;;;4976886;28;20081;-77
2022/09/07 12:01:56;;;;;;;5.35;2.95;;;28.30;89.90;;;;;;4976510;28;20104;-77
2022/09/07 12:04:24;;;;;;;;;;;28.70;89.40;;;;;;4912667;28;20133;-77
2022/09/07 12:06:50;;;;;;;4.22;2.17;;;28.50;84.50;;;;;;4976141;28;19917;-77
2022/09/07 12:09:44;;;;;;;3.85;2.58;;;28.30;85.50;;;;;;4976193;28;20050;-77
2022/09/07 12:12:21;;;;;;;3.90;2.00;;;27.80;80.80;;;;;;4976396;28;20129;-76
2022/09/07 12:15:02;;;;;;;4.90;2.95;;;27.40;85.00;;;;;;4976135;28;20474;-76
2022/09/07 12:18:02;;;;;;;4.13;2.60;;;27.40;85.40;;;;;;4960860;28;20352;-76
2022/09/07 12:20:38;;;;;;;4.20;2.40;;;27.60;86.20;;;;;;4975953;28;20125;-77
2022/09/07 12:23:16;;;;;;;5.25;2.10;;;28.00;84.50;;;;;;4976111;28;20034;-76
2022/09/07 12:25:43;;;;;;;5.20;2.58;;;28.20;83.50;;;;;;4976366;28;20056;-77
2022/09/07 12:28:23;;;;;;;4.20;2.20;;;28.50;81.60;;;;;;4975884;28;20039;-77
2022/09/07 12:30:57;;;;;;;4.47;2.47;;;28.80;77.10;;;;;;4959821;28;20398;-77
2022/09/07 12:33:26;;;;;;;3.63;2.25;;;28.90;75.90;;;;;;4976016;28;20050;-77
2022/09/07 12:35:53;;;;;;;5.43;2.78;;;28.60;75.50;;;;;;4975943;28;20039;-77
2022/09/07 12:38:19;;;;;;;6.13;2.92;;;28.40;76.30;;;;;;4975850;28;20533;-77
2022/09/07 12:40:46;;;;;;;5.35;2.88;;;28.50;75.50;;;;;;4975891;28;20069;-77
2022/09/07 12:43:12;;;;;;;3.92;2.30;;;28.50;75.20;;;;;;4975941;28;20043;-77
2022/09/07 12:45:37;;;;;;;5.85;2.92;;;28.50;74.70;;;;;;4975905;28;20042;-77
2022/09/07 12:48:15;;;;;;;5.38;2.58;;;28.50;75.00;;;;;;4959682;28;20046;-77
2022/09/07 12:50:53;;;;;;;6.22;2.92;;;28.60;75.20;;;;;;4959770;28;20034;-76
2022/09/07 12:53:40;;;;;;;4.75;2.50;;;28.90;73.30;;;;;;4975848;28;20034;-77
2022/09/07 12:56:18;;;;;;;6.03;2.63;;;29.10;72.90;;;;;;4959991;28;20056;-77
2022/09/07 12:59:01;;;;;;;4.43;2.83;;;29.30;72.90;;;;;;4977883;28;20050;-77
2022/09/07 13:01:59;;;;;;;4.13;2.70;;;29.40;71.90;;;;;;4979392;28;20081;-77
2022/09/07 13:04:40;;;;;;;5.18;1.90;;;29.50;70.30;;;;;;4979604;28;20061;-76
2022/09/07 13:07:32;;;;;;;3.88;1.90;;;29.50;69.40;;;;;;4979092;28;20418;-76
2022/09/07 13:10:00;;;;;;;4.05;2.58;;;29.30;68.30;;;;;;4979481;28;20097;-77
2022/09/07 13:12:39;;;;;;;4.57;2.60;;;29.30;67.50;;;;;;4979175;28;20120;-76